Gilbertville, Massachusetts
Current Conditions -  °F | °C
As of 7:54 AM on Thursday 18 Dec 2014 (Local Time) from KORH Reporting Station
Overcast Overcast  
Wind Chill: 20°   Ceiling: 11000
Heat Index: 32°   Visibility: 10mi
Dew Point: 28°   Wind: 21mph
Humidity: 85%   Direction: 290°WNW
Pressure: 29.74"   Gusts: 26mph
Location:  42.31°N, 72.21°W
Report Text: KORH 181254Z 29018G23KT 10SM SCT080 OVC110 00/M02 A2974 RMK AO2 SNE18 SLP081 P0000 T00001022
Loading
Personal Weather Stations






























Interactive Weather Map New forecast layout! Learn more

10-Day Weather Forecast

Advertisements
Track Severe Weather on mobile